Evansville, Indiana
Current Conditions -  °F | °C
As of 12:32 AM on Thursday 27 Nov 2014 (Local Time) from KEVV Reporting Station
Light Snow Light Snow  
Wind Chill: 29°   Ceiling: 500
Heat Index: 34°   Visibility: 3mi
Dew Point: 31°   Wind: 6mph
Humidity: 89%   Direction: 340°NNW
Pressure: 30.13"   Gusts: NA
Location:  37.98°N, 87.56°W
Report Text: KEVV 270632Z AUTO 34005KT 3SM -SN BR BKN005 OVC009 01/M01 A3013 RMK AO2 P0001 T00111006
Loading
Personal Weather Stations






























Interactive Weather Map New forecast layout! Learn more

10-Day Weather Forecast

Advertisements
Track Severe Weather on mobile